Time;durP1;ratioP1;P1;durP2;ratioP2;P2;SDS_P1;SDS_P2;PMS_P1;PMS_P2;Temp;Humidity;BMP_temperature;BMP_pressure;BME280_temperature;BME280_humidity;BME280_pressure;Samples;Min_cycle;Max_cycle;Signal;HPM_P1;HPM_P2
2022/03/13 00:01:02;;;;;;;21.55;11.93;;;11.10;91.80;;;;;;4136165;28;20512;-69
2022/03/13 00:03:10;;;;;;;18.75;11.90;;;11.10;91.30;;;;;;4139360;28;20038;-69
2022/03/13 00:05:14;;;;;;;18.58;11.85;;;11.10;91.10;;;;;;4164855;28;20034;-69
2022/03/13 00:07:24;;;;;;;19.77;12.00;;;11.10;91.00;;;;;;4149448;28;20042;-69
2022/03/13 00:09:25;;;;;;;21.63;12.27;;;11.10;91.10;;;;;;4134171;28;20105;-69
2022/03/13 00:11:29;;;;;;;22.70;12.57;;;11.10;90.80;;;;;;4137787;28;20061;-69
2022/03/13 00:13:32;;;;;;;17.42;10.65;;;11.10;90.80;;;;;;4136949;28;20042;-69
2022/03/13 00:15:35;;;;;;;16.35;10.95;;;11.20;91.30;;;;;;4141550;28;20035;-69
2022/03/13 00:17:35;;;;;;;16.17;10.77;;;11.20;91.80;;;;;;4138990;28;20045;-69
2022/03/13 00:19:36;;;;;;;18.58;10.65;;;11.30;91.30;;;;;;4139669;28;20034;-69
2022/03/13 00:21:38;;;;;;;18.75;11.43;;;11.30;91.90;;;;;;4139813;28;20105;-69
2022/03/13 00:23:38;;;;;;;16.52;11.05;;;11.30;91.40;;;;;;4140455;28;20029;-69
2022/03/13 00:25:40;;;;;;;19.20;10.70;;;11.30;91.30;;;;;;4138716;28;20121;-69
2022/03/13 00:27:40;;;;;;;17.80;10.85;;;11.30;91.20;;;;;;4139024;28;20056;-69
2022/03/13 00:29:41;;;;;;;16.33;10.75;;;11.30;91.00;;;;;;4156953;28;20061;-69
2022/03/13 00:31:42;;;;;;;17.90;11.25;;;11.30;91.70;;;;;;4133329;28;20107;-69
2022/03/13 00:33:43;;;;;;;20.20;11.93;;;11.30;90.80;;;;;;4147218;28;20034;-69
2022/03/13 00:35:43;;;;;;;18.98;10.95;;;11.40;91.60;;;;;;4138705;28;20038;-69
2022/03/13 00:37:44;;;;;;;17.13;11.45;;;11.30;90.60;;;;;;4138589;28;20414;-69
2022/03/13 00:39:46;;;;;;;17.92;11.35;;;11.30;90.40;;;;;;4142648;28;20037;-69
2022/03/13 00:41:47;;;;;;;17.77;11.63;;;11.20;90.30;;;;;;4142779;28;20108;-69
2022/03/13 00:43:48;;;;;;;18.77;11.73;;;11.10;90.50;;;;;;4133171;28;20117;-69
2022/03/13 00:45:49;;;;;;;16.48;10.90;;;11.10;90.70;;;;;;4141871;28;20054;-69
2022/03/13 00:47:50;;;;;;;17.67;11.40;;;11.10;91.00;;;;;;4140363;28;20042;-69
2022/03/13 00:49:51;;;;;;;17.63;11.23;;;11.10;91.10;;;;;;4172339;28;20053;-69
2022/03/13 00:51:52;;;;;;;20.75;11.77;;;11.00;90.90;;;;;;4131445;28;20088;-69
2022/03/13 00:53:52;;;;;;;19.05;11.73;;;11.00;91.40;;;;;;4134139;28;20520;-69
2022/03/13 00:55:53;;;;;;;18.35;11.48;;;11.00;91.00;;;;;;4164972;28;20418;-69
2022/03/13 00:57:54;;;;;;;17.17;11.10;;;11.00;91.20;;;;;;4133450;28;20049;-69
2022/03/13 00:59:55;;;;;;;16.10;10.32;;;11.00;91.40;;;;;;4135945;28;20123;-69
2022/03/13 01:01:56;;;;;;;18.67;10.40;;;11.00;91.50;;;;;;4134333;28;20034;-69
2022/03/13 01:03:56;;;;;;;21.65;11.75;;;11.00;91.60;;;;;;4165177;28;20164;-69
2022/03/13 01:05:58;;;;;;;15.73;10.73;;;10.90;91.80;;;;;;4140129;28;20522;-69
2022/03/13 01:07:59;;;;;;;17.57;11.57;;;10.80;92.10;;;;;;4169514;28;20441;-69
2022/03/13 01:10:00;;;;;;;20.80;11.73;;;10.80;92.00;;;;;;4143615;28;20038;-69
2022/03/13 01:12:01;;;;;;;19.75;11.10;;;10.70;91.90;;;;;;4140782;28;20041;-69
2022/03/13 01:14:02;;;;;;;18.15;11.05;;;10.50;91.80;;;;;;4141825;28;20399;-69
2022/03/13 01:16:19;;;;;;;18.70;10.82;;;10.50;91.90;;;;;;4143199;28;20048;-69
2022/03/13 01:22:41;;;;;;;19.45;10.25;;;10.60;92.00;;;;;;4133533;26;20054;-66
2022/03/13 01:24:44;;;;;;;16.40;11.15;;;10.60;91.70;;;;;;4145633;28;20034;-67
2022/03/13 01:26:52;;;;;;;16.92;10.75;;;10.60;91.90;;;;;;4142390;28;20046;-66
2022/03/13 01:28:56;;;;;;;15.65;10.50;;;10.50;91.70;;;;;;4145270;28;20038;-67
2022/03/13 01:30:56;;;;;;;16.95;10.88;;;10.60;92.30;;;;;;4144121;28;20104;-66
2022/03/13 01:32:57;;;;;;;17.48;10.75;;;10.60;91.70;;;;;;4145453;28;20038;-67
2022/03/13 01:34:58;;;;;;;18.05;11.27;;;10.60;91.90;;;;;;4147112;28;20060;-66
2022/03/13 01:36:59;;;;;;;16.92;11.05;;;10.50;92.00;;;;;;4144738;28;20045;-67
2022/03/13 01:39:01;;;;;;;16.83;10.50;;;10.50;91.30;;;;;;4145733;28;20046;-66
2022/03/13 01:41:01;;;;;;;18.55;11.50;;;10.50;92.00;;;;;;4146435;28;20022;-66
2022/03/13 01:43:02;;;;;;;16.25;10.40;;;10.50;91.10;;;;;;4147547;28;20453;-67
2022/03/13 01:45:03;;;;;;;17.83;10.93;;;10.50;92.40;;;;;;4146524;28;20045;-68
2022/03/13 01:47:06;;;;;;;18.75;11.25;;;10.40;90.70;;;;;;4145305;28;20053;-66
2022/03/13 01:49:08;;;;;;;17.48;11.13;;;10.40;90.30;;;;;;4146730;28;20038;-66
2022/03/13 01:51:08;;;;;;;17.13;10.23;;;10.40;90.00;;;;;;4145020;28;20129;-66
2022/03/13 01:53:09;;;;;;;23.33;11.50;;;10.40;90.70;;;;;;4134147;28;20058;-66
2022/03/13 01:55:10;;;;;;;18.02;11.23;;;10.30;89.10;;;;;;4145988;28;20034;-67
2022/03/13 01:57:17;;;;;;;17.50;11.05;;;10.30;88.90;;;;;;4143919;28;20119;-67
2022/03/13 01:59:17;;;;;;;16.63;10.32;;;10.20;89.30;;;;;;4144370;28;20037;-67
2022/03/13 02:01:19;;;;;;;17.17;10.88;;;10.30;89.00;;;;;;4146154;28;20040;-66
2022/03/13 02:03:22;;;;;;;17.73;11.13;;;10.20;88.10;;;;;;4146336;28;20029;-66
2022/03/13 02:05:34;;;;;;;15.27;10.15;;;10.30;87.90;;;;;;4145460;28;20042;-67
2022/03/13 02:07:35;;;;;;;15.63;9.82;;;10.20;88.50;;;;;;4144336;28;20111;-66
2022/03/13 02:09:36;;;;;;;17.77;10.40;;;10.20;89.30;;;;;;4147255;28;20036;-66
2022/03/13 02:11:38;;;;;;;16.13;9.85;;;10.30;88.80;;;;;;4128596;28;20449;-66
2022/03/13 02:13:39;;;;;;;15.27;9.82;;;10.30;89.10;;;;;;4145203;28;20452;-66
2022/03/13 02:15:40;;;;;;;15.95;9.80;;;10.30;88.80;;;;;;4134869;28;20480;-67
2022/03/13 02:17:41;;;;;;;14.90;9.95;;;10.30;89.40;;;;;;4149783;28;20037;-66
2022/03/13 02:19:41;;;;;;;15.75;10.52;;;10.30;88.60;;;;;;4150091;28;20129;-66
2022/03/13 02:21:48;;;;;;;16.30;10.15;;;10.30;88.00;;;;;;4144490;28;20046;-66
2022/03/13 02:23:48;;;;;;;16.85;10.20;;;10.30;88.90;;;;;;4138671;28;20048;-67
2022/03/13 02:25:55;;;;;;;14.55;9.70;;;10.20;85.70;;;;;;4146350;28;20524;-67
2022/03/13 02:27:56;;;;;;;14.70;9.57;;;10.20;86.20;;;;;;4145591;28;20067;-66
2022/03/13 02:29:57;;;;;;;15.25;9.77;;;10.20;86.80;;;;;;4145995;28;20034;-66
2022/03/13 02:31:59;;;;;;;16.40;9.98;;;10.30;89.60;;;;;;4144427;28;20034;-67
2022/03/13 02:34:00;;;;;;;15.13;10.02;;;10.30;86.40;;;;;;4146955;28;20046;-67
2022/03/13 02:36:04;;;;;;;18.38;10.18;;;10.20;86.40;;;;;;4144609;28;20033;-66
2022/03/13 02:38:04;;;;;;;15.75;9.73;;;10.30;86.90;;;;;;4145484;28;20050;-66
2022/03/13 02:40:08;;;;;;;16.17;9.93;;;10.20;85.00;;;;;;4141743;28;20056;-68
2022/03/13 02:42:08;;;;;;;18.33;9.98;;;10.20;85.30;;;;;;4137946;28;20066;-66
2022/03/13 02:44:12;;;;;;;13.60;8.82;;;10.20;84.40;;;;;;4141727;28;20038;-66
2022/03/13 02:46:24;;;;;;;16.70;9.57;;;10.20;85.20;;;;;;4134813;28;20046;-66
2022/03/13 02:48:25;;;;;;;14.15;9.00;;;10.10;82.40;;;;;;4142152;28;20075;-66
2022/03/13 02:50:25;;;;;;;15.15;9.48;;;10.10;82.60;;;;;;4139650;28;20044;-66
2022/03/13 02:52:27;;;;;;;17.38;9.77;;;10.00;83.30;;;;;;4140839;28;20035;-67
2022/03/13 02:54:28;;;;;;;13.77;9.35;;;9.90;81.70;;;;;;4141558;28;20035;-66
2022/03/13 02:56:29;;;;;;;15.60;8.63;;;10.00;84.40;;;;;;4138620;28;20041;-66
2022/03/13 02:58:30;;;;;;;12.07;7.88;;;9.90;80.80;;;;;;4137120;28;20042;-66
2022/03/13 03:00:50;;;;;;;14.02;8.60;;;9.90;83.60;;;;;;4139952;28;20050;-66
2022/03/13 03:02:51;;;;;;;12.35;8.02;;;9.90;82.90;;;;;;4135435;28;20046;-66
2022/03/13 03:04:54;;;;;;;12.32;8.43;;;9.90;83.20;;;;;;4136402;28;20189;-66
2022/03/13 03:06:59;;;;;;;;;;;9.90;81.60;;;;;;4140562;28;20101;-66
2022/03/13 03:09:03;;;;;;;14.55;8.75;;;9.90;82.60;;;;;;4138780;28;20000;-66
2022/03/13 03:11:04;;;;;;;15.57;8.90;;;9.80;83.90;;;;;;4117554;28;20039;-66
2022/03/13 03:13:07;;;;;;;13.95;9.07;;;9.90;81.60;;;;;;4136296;28;20214;-66
2022/03/13 03:15:08;;;;;;;12.55;8.25;;;9.80;81.40;;;;;;4140846;28;20035;-67
2022/03/13 03:17:09;;;;;;;16.17;9.88;;;9.90;84.20;;;;;;4137123;28;20041;-66
2022/03/13 03:19:09;;;;;;;15.23;8.68;;;9.90;84.20;;;;;;4136321;28;20046;-67
2022/03/13 03:21:12;;;;;;;12.25;8.00;;;9.90;83.60;;;;;;4139286;28;20502;-66
2022/03/13 03:23:13;;;;;;;13.90;8.80;;;9.90;81.50;;;;;;4134261;28;20053;-66
2022/03/13 03:25:14;;;;;;;13.43;8.13;;;9.90;83.80;;;;;;4134730;28;20041;-67
2022/03/13 03:27:17;;;;;;;16.05;9.55;;;9.90;80.20;;;;;;4142103;28;20038;-66
2022/03/13 03:29:18;;;;;;;13.88;8.98;;;9.70;78.20;;;;;;4135823;28;20073;-66
2022/03/13 03:31:19;;;;;;;14.65;8.77;;;9.70;80.00;;;;;;4138111;28;20039;-66
2022/03/13 03:33:19;;;;;;;14.85;9.50;;;9.60;79.00;;;;;;4140361;28;20527;-66
2022/03/13 03:35:23;;;;;;;15.60;9.55;;;9.60;78.80;;;;;;4143273;28;20484;-66
2022/03/13 03:37:25;;;;;;;12.77;8.48;;;9.60;78.20;;;;;;4126567;28;20445;-66
2022/03/13 03:39:28;;;;;;;15.27;9.10;;;9.60;79.60;;;;;;4145677;28;20495;-65
2022/03/13 03:41:29;;;;;;;12.45;8.35;;;9.50;78.80;;;;;;4144196;28;20552;-66
2022/03/13 03:43:29;;;;;;;13.90;8.27;;;9.40;77.40;;;;;;4144304;28;20121;-66
2022/03/13 03:45:31;;;;;;;13.25;8.45;;;9.40;77.90;;;;;;4134793;28;20109;-66
2022/03/13 03:47:32;;;;;;;16.00;9.33;;;9.40;78.20;;;;;;4143298;28;20034;-66
2022/03/13 03:49:34;;;;;;;13.82;8.88;;;9.50;77.40;;;;;;4150025;28;20034;-66
2022/03/13 03:51:35;;;;;;;13.57;8.45;;;9.40;76.20;;;;;;4143424;28;20337;-66
2022/03/13 03:53:36;;;;;;;13.38;8.63;;;9.30;74.80;;;;;;4143507;28;20045;-66
2022/03/13 03:55:36;;;;;;;14.75;8.77;;;9.30;75.90;;;;;;4142806;28;20030;-65
2022/03/13 03:57:37;;;;;;;13.35;8.40;;;9.30;76.60;;;;;;4145225;28;20021;-66
2022/03/13 03:59:38;;;;;;;14.23;7.85;;;9.30;78.90;;;;;;4145285;28;20054;-65
2022/03/13 04:01:41;;;;;;;12.00;7.68;;;9.30;79.00;;;;;;4144534;28;20061;-65
2022/03/13 04:03:41;;;;;;;14.68;8.40;;;9.40;78.90;;;;;;4140889;28;20080;-65
2022/03/13 04:05:42;;;;;;;14.90;8.82;;;9.40;76.90;;;;;;4144754;28;20034;-66
2022/03/13 04:07:43;;;;;;;13.68;8.52;;;9.40;77.00;;;;;;4144263;28;20092;-66
2022/03/13 04:09:44;;;;;;;13.68;8.40;;;9.40;77.60;;;;;;4143801;28;20040;-66
2022/03/13 04:11:46;;;;;;;13.00;7.53;;;9.40;77.70;;;;;;4143623;28;20469;-66
2022/03/13 04:13:47;;;;;;;15.68;7.90;;;9.40;75.40;;;;;;4144208;28;20096;-66
2022/03/13 04:15:47;;;;;;;14.85;8.82;;;9.40;76.50;;;;;;4143681;28;20068;-66
2022/03/13 04:17:48;;;;;;;16.60;9.15;;;9.30;73.00;;;;;;4143567;28;20037;-66
2022/03/13 04:19:49;;;;;;;13.70;8.48;;;9.30;73.10;;;;;;4144892;28;20113;-66
2022/03/13 04:21:49;;;;;;;13.73;8.43;;;9.30;74.20;;;;;;4135005;28;20050;-65
2022/03/13 04:23:51;;;;;;;11.57;8.05;;;9.20;72.90;;;;;;4134295;28;20034;-66
2022/03/13 04:25:51;;;;;;;15.05;8.52;;;9.30;74.20;;;;;;4141300;28;20044;-65
2022/03/13 04:27:52;;;;;;;16.63;8.90;;;9.20;73.00;;;;;;4133024;28;20046;-65
2022/03/13 04:29:52;;;;;;;16.52;9.85;;;9.30;72.50;;;;;;4136151;28;20067;-66
2022/03/13 04:31:55;;;;;;;14.02;8.82;;;9.30;72.20;;;;;;4141065;28;20038;-65
2022/03/13 04:33:55;;;;;;;14.90;8.38;;;9.30;72.40;;;;;;4142076;28;20129;-66
2022/03/13 04:35:57;;;;;;;15.13;8.43;;;9.20;71.90;;;;;;4140133;28;20389;-66
2022/03/13 04:37:57;;;;;;;13.30;7.80;;;9.30;73.10;;;;;;4138306;28;20045;-66
2022/03/13 04:39:58;;;;;;;15.13;8.82;;;9.30;74.30;;;;;;4137067;28;20037;-65
2022/03/13 04:41:58;;;;;;;16.20;8.32;;;9.30;73.80;;;;;;4141211;28;20405;-65
2022/03/13 04:44:00;;;;;;;12.48;7.90;;;9.30;74.90;;;;;;4135417;28;20145;-66
2022/03/13 04:46:01;;;;;;;13.40;8.27;;;9.30;73.40;;;;;;4141943;28;20037;-65
2022/03/13 04:48:02;;;;;;;14.05;8.57;;;9.40;74.80;;;;;;4138173;28;20047;-66
2022/03/13 04:50:03;;;;;;;16.13;8.30;;;9.40;76.70;;;;;;4136973;28;20056;-67
2022/03/13 04:52:05;;;;;;;13.50;8.75;;;9.40;74.10;;;;;;4142014;28;20045;-66
2022/03/13 04:54:07;;;;;;;12.57;7.85;;;9.40;70.80;;;;;;4127961;28;20039;-65
2022/03/13 04:56:08;;;;;;;15.90;8.07;;;9.50;72.90;;;;;;4139833;28;20477;-66
2022/03/13 04:58:09;;;;;;;14.02;8.45;;;9.50;70.90;;;;;;4138922;28;20072;-66
2022/03/13 05:00:10;;;;;;;12.82;8.75;;;9.50;69.00;;;;;;4137071;28;20038;-66
2022/03/13 05:02:10;;;;;;;14.35;8.45;;;9.50;68.50;;;;;;4140982;28;20088;-66
2022/03/13 05:04:11;;;;;;;12.98;8.15;;;9.50;70.20;;;;;;4143079;28;20397;-66
2022/03/13 05:06:12;;;;;;;13.95;8.73;;;9.50;67.50;;;;;;4143910;28;20069;-66
2022/03/13 05:08:15;;;;;;;14.52;8.27;;;9.50;70.40;;;;;;4147408;28;20046;-66
2022/03/13 05:10:19;;;;;;;13.73;8.45;;;9.60;68.50;;;;;;4143887;28;20147;-66
2022/03/13 05:12:27;;;;;;;16.30;8.45;;;9.60;68.10;;;;;;4141595;28;20042;-65
2022/03/13 05:14:27;;;;;;;12.95;8.05;;;9.60;69.50;;;;;;4146581;28;20061;-66
2022/03/13 05:16:28;;;;;;;13.52;8.27;;;9.60;68.30;;;;;;4146446;28;20029;-66
2022/03/13 05:18:29;;;;;;;14.80;8.45;;;9.70;70.20;;;;;;4128198;28;20030;-66
2022/03/13 05:20:34;;;;;;;12.70;8.07;;;9.60;66.20;;;;;;4142281;28;20135;-66
2022/03/13 05:22:34;;;;;;;14.85;7.95;;;9.70;67.80;;;;;;4144435;28;20480;-66
2022/03/13 05:24:35;;;;;;;15.18;8.50;;;9.60;66.10;;;;;;4142089;28;20042;-66
2022/03/13 05:26:36;;;;;;;13.52;8.25;;;9.60;64.60;;;;;;4141968;28;20065;-66
2022/03/13 05:28:37;;;;;;;15.65;8.77;;;9.50;63.90;;;;;;4142169;28;20037;-66
2022/03/13 05:30:39;;;;;;;12.70;8.15;;;9.60;64.10;;;;;;4142469;28;20041;-66
2022/03/13 05:32:39;;;;;;;14.18;8.43;;;9.60;65.20;;;;;;4143262;28;20077;-66
2022/03/13 05:34:40;;;;;;;12.95;8.35;;;9.50;63.90;;;;;;4142334;28;20095;-66
2022/03/13 05:36:41;;;;;;;15.27;9.32;;;9.60;65.90;;;;;;4140649;28;20041;-66
2022/03/13 05:38:41;;;;;;;12.95;7.78;;;9.60;64.10;;;;;;4141751;28;20125;-65
2022/03/13 05:40:42;;;;;;;13.27;8.18;;;9.60;63.50;;;;;;4139437;28;20457;-66
2022/03/13 05:42:45;;;;;;;13.75;7.75;;;9.50;64.00;;;;;;4126548;28;20048;-66
2022/03/13 05:44:45;;;;;;;16.35;8.98;;;9.50;63.50;;;;;;4132970;28;20543;-66
2022/03/13 05:46:47;;;;;;;14.77;8.68;;;9.50;64.10;;;;;;4139233;28;20038;-66
2022/03/13 05:48:47;;;;;;;12.85;8.02;;;9.50;66.00;;;;;;4135960;28;20444;-65
2022/03/13 05:50:48;;;;;;;15.65;8.82;;;9.60;66.40;;;;;;4153044;28;20034;-66
2022/03/13 05:52:49;;;;;;;12.30;7.97;;;9.50;65.30;;;;;;4132069;28;20389;-66
2022/03/13 05:54:50;;;;;;;11.00;7.28;;;9.60;67.00;;;;;;4119111;28;20042;-66
2022/03/13 05:56:51;;;;;;;15.80;8.65;;;9.70;67.90;;;;;;4134095;28;20039;-65
2022/03/13 05:58:52;;;;;;;14.32;8.75;;;9.60;64.20;;;;;;4142403;28;20042;-66
2022/03/13 06:01:05;;;;;;;19.60;8.32;;;9.60;65.60;;;;;;4132732;28;20373;-65
2022/03/13 06:03:06;;;;;;;11.25;7.60;;;9.60;66.60;;;;;;4139947;28;20040;-66
2022/03/13 06:05:10;;;;;;;12.55;8.20;;;9.70;65.80;;;;;;4143498;28;20070;-66
2022/03/13 06:07:10;;;;;;;15.07;8.23;;;9.70;63.90;;;;;;4143581;28;20137;-66
2022/03/13 06:09:11;;;;;;;15.35;7.95;;;9.60;61.70;;;;;;4144546;28;20136;-66
2022/03/13 06:11:12;;;;;;;13.77;8.27;;;9.60;62.90;;;;;;4136134;28;20042;-66
2022/03/13 06:13:13;;;;;;;13.23;8.10;;;9.60;64.20;;;;;;4144241;28;20424;-66
2022/03/13 06:15:14;;;;;;;12.48;7.65;;;9.70;63.80;;;;;;4145422;28;20553;-66
2022/03/13 06:17:15;;;;;;;12.00;7.45;;;9.70;62.90;;;;;;4144278;28;20052;-66
2022/03/13 06:19:15;;;;;;;12.43;7.32;;;9.70;62.00;;;;;;4147887;28;20069;-66
2022/03/13 06:21:16;;;;;;;12.27;7.97;;;9.70;63.30;;;;;;4145594;28;20061;-66
2022/03/13 06:23:17;;;;;;;13.75;7.80;;;9.80;65.90;;;;;;4140267;28;20053;-66
2022/03/13 06:25:18;;;;;;;14.02;7.85;;;9.80;66.90;;;;;;4127134;28;20047;-66
2022/03/13 06:27:18;;;;;;;14.57;8.23;;;9.80;66.20;;;;;;4141144;28;20073;-66
2022/03/13 06:29:19;;;;;;;13.68;8.10;;;9.80;61.10;;;;;;4140572;28;20050;-66
2022/03/13 06:31:20;;;;;;;12.82;8.00;;;9.80;61.40;;;;;;4142544;28;20041;-66
2022/03/13 06:33:21;;;;;;;15.00;7.68;;;9.80;62.40;;;;;;4143597;28;20062;-66
2022/03/13 06:35:23;;;;;;;12.13;7.72;;;9.70;59.30;;;;;;4145176;28;20473;-65
2022/03/13 06:37:24;;;;;;;13.07;7.93;;;9.60;59.00;;;;;;4147354;28;20092;-65
2022/03/13 06:39:24;;;;;;;13.23;8.07;;;9.70;61.00;;;;;;4148039;28;20089;-66
2022/03/13 06:41:26;;;;;;;13.13;7.97;;;9.70;63.40;;;;;;4145351;28;20030;-65
2022/03/13 06:43:26;;;;;;;13.95;7.90;;;9.70;61.00;;;;;;4142715;28;20092;-66
2022/03/13 06:45:27;;;;;;;13.02;8.02;;;9.70;59.60;;;;;;4143116;28;20034;-66
2022/03/13 06:47:27;;;;;;;12.52;8.13;;;9.60;58.30;;;;;;4146034;28;20030;-66
2022/03/13 06:49:28;;;;;;;11.82;7.90;;;9.60;59.90;;;;;;4142358;28;20050;-65
2022/03/13 06:51:29;;;;;;;16.92;8.52;;;9.70;62.80;;;;;;4142454;28;20034;-65
2022/03/13 06:53:29;;;;;;;14.30;8.05;;;9.70;60.40;;;;;;4142059;28;20104;-66
2022/03/13 06:55:30;;;;;;;15.45;8.15;;;9.70;59.00;;;;;;4143991;28;20045;-66
2022/03/13 06:57:31;;;;;;;14.18;8.63;;;9.60;58.40;;;;;;4143868;28;20553;-66
2022/03/13 06:59:31;;;;;;;13.98;8.63;;;9.50;58.30;;;;;;4142271;28;20385;-66
2022/03/13 07:01:38;;;;;;;13.13;7.50;;;9.50;58.10;;;;;;4144756;28;20038;-65
2022/03/13 07:03:39;;;;;;;11.85;7.88;;;9.60;58.60;;;;;;4142981;28;20204;-66
2022/03/13 07:05:41;;;;;;;15.13;8.33;;;9.60;59.30;;;;;;4147228;28;20076;-66
2022/03/13 07:07:42;;;;;;;12.43;7.68;;;9.60;60.00;;;;;;4144715;28;20461;-66
2022/03/13 07:09:42;;;;;;;13.38;7.82;;;9.60;59.30;;;;;;4144188;28;20045;-66
2022/03/13 07:11:45;;;;;;;12.70;8.02;;;9.60;59.50;;;;;;4141914;28;20049;-66
2022/03/13 07:13:46;;;;;;;11.68;7.70;;;9.60;59.70;;;;;;4144102;28;20030;-66
2022/03/13 07:15:48;;;;;;;12.45;7.18;;;9.70;62.40;;;;;;4143846;28;20037;-66
2022/03/13 07:17:48;;;;;;;15.65;8.63;;;9.70;61.40;;;;;;4142214;28;20104;-66
2022/03/13 07:19:49;;;;;;;13.85;8.30;;;9.70;63.80;;;;;;4142373;28;20042;-67
2022/03/13 07:21:49;;;;;;;14.63;8.30;;;9.70;61.50;;;;;;4140374;28;20048;-66
2022/03/13 07:23:50;;;;;;;13.70;8.18;;;9.70;64.10;;;;;;4141506;28;20496;-66
2022/03/13 07:25:51;;;;;;;15.18;7.97;;;9.70;61.90;;;;;;4142440;28;20145;-65
2022/03/13 07:27:52;;;;;;;12.88;8.13;;;9.70;59.60;;;;;;4142638;28;20142;-66
2022/03/13 07:29:53;;;;;;;15.35;8.70;;;9.60;59.80;;;;;;4142008;28;20042;-66
2022/03/13 07:31:56;;;;;;;14.48;8.77;;;9.60;61.50;;;;;;4142861;28;20045;-66
2022/03/13 07:33:57;;;;;;;12.45;7.90;;;9.60;59.50;;;;;;4138515;28;20129;-66
2022/03/13 07:35:58;;;;;;;12.50;7.35;;;9.70;60.80;;;;;;4137195;28;20435;-66
2022/03/13 07:37:58;;;;;;;16.98;8.63;;;9.70;61.50;;;;;;4140481;28;20093;-68
2022/03/13 07:39:59;;;;;;;15.00;8.50;;;9.70;60.60;;;;;;4143043;28;20042;-65
2022/03/13 07:42:00;;;;;;;12.93;8.07;;;9.70;59.80;;;;;;4143272;28;20112;-65
2022/03/13 07:44:03;;;;;;;15.02;7.88;;;9.70;60.20;;;;;;4143783;28;20041;-65
2022/03/13 07:46:05;;;;;;;13.90;8.00;;;9.70;61.10;;;;;;4141458;28;20509;-65
2022/03/13 07:48:05;;;;;;;17.33;8.27;;;9.70;62.60;;;;;;4144827;28;20045;-66
2022/03/13 07:50:07;;;;;;;14.85;8.23;;;9.70;60.80;;;;;;4145463;28;20552;-67
2022/03/13 07:52:08;;;;;;;13.27;7.63;;;9.70;61.10;;;;;;4143341;28;20044;-66
2022/03/13 07:54:08;;;;;;;15.13;7.95;;;9.60;59.00;;;;;;4142557;28;20438;-66
2022/03/13 07:56:09;;;;;;;14.40;8.43;;;9.60;58.70;;;;;;4143809;28;20034;-66
2022/03/13 07:58:09;;;;;;;13.73;8.15;;;9.60;59.20;;;;;;4151411;28;20044;-66
2022/03/13 08:00:12;;;;;;;11.95;7.65;;;9.70;60.80;;;;;;4145873;28;20056;-66
2022/03/13 08:02:12;;;;;;;13.32;8.32;;;9.80;61.20;;;;;;4147249;28;20038;-66
2022/03/13 08:04:14;;;;;;;12.10;8.00;;;9.80;59.60;;;;;;4145733;28;20059;-66
2022/03/13 08:06:14;;;;;;;13.57;7.90;;;9.80;59.90;;;;;;4142537;28;20381;-66
2022/03/13 08:08:15;;;;;;;13.05;8.02;;;9.80;59.90;;;;;;4140482;28;20046;-66
2022/03/13 08:10:20;;;;;;;14.20;8.30;;;9.90;61.70;;;;;;4146066;28;20132;-66
2022/03/13 08:12:21;;;;;;;16.30;8.55;;;10.00;62.10;;;;;;4143425;28;20062;-65
2022/03/13 08:14:21;;;;;;;14.95;8.77;;;10.00;61.70;;;;;;4146854;28;20440;-65
2022/03/13 08:16:22;;;;;;;12.73;8.02;;;10.00;60.30;;;;;;4142206;28;20040;-65
2022/03/13 08:18:23;;;;;;;13.90;9.10;;;9.90;59.50;;;;;;4145183;28;20473;-66
2022/03/13 08:20:23;;;;;;;13.38;8.27;;;10.10;61.70;;;;;;4143697;28;20050;-66
2022/03/13 08:22:24;;;;;;;14.85;8.77;;;10.40;60.10;;;;;;4142969;28;20050;-65
2022/03/13 08:24:24;;;;;;;11.70;7.93;;;10.60;60.10;;;;;;4144316;28;20473;-69
2022/03/13 08:26:27;;;;;;;14.30;8.85;;;10.90;57.90;;;;;;4141178;28;20061;-65
2022/03/13 08:28:27;;;;;;;14.13;9.05;;;11.20;57.40;;;;;;4143325;28;20069;-66
2022/03/13 08:30:28;;;;;;;16.73;8.73;;;11.40;56.10;;;;;;4144043;28;20101;-66
2022/03/13 08:32:29;;;;;;;14.13;8.40;;;11.60;56.90;;;;;;4143048;28;20116;-66
2022/03/13 08:34:33;;;;;;;13.85;8.95;;;11.80;58.00;;;;;;4142673;28;20034;-65
2022/03/13 08:36:36;;;;;;;14.93;8.65;;;11.90;58.10;;;;;;4142864;28;20042;-66
2022/03/13 08:38:37;;;;;;;14.13;9.10;;;12.00;57.60;;;;;;4143950;28;20096;-66
2022/03/13 08:40:37;;;;;;;21.33;9.35;;;12.00;55.50;;;;;;4137759;28;20034;-66
2022/03/13 08:42:38;;;;;;;16.38;10.00;;;12.20;56.90;;;;;;4142967;28;20465;-66
2022/03/13 08:44:38;;;;;;;13.70;9.10;;;12.30;56.50;;;;;;4147962;28;20060;-66
2022/03/13 08:46:39;;;;;;;15.35;8.38;;;12.40;56.00;;;;;;4145826;28;20042;-67
2022/03/13 08:48:40;;;;;;;17.15;10.05;;;12.40;55.50;;;;;;4146330;28;20083;-67
2022/03/13 08:50:41;;;;;;;15.80;9.75;;;12.40;57.00;;;;;;4142602;28;20384;-66
2022/03/13 08:52:42;;;;;;;13.77;8.20;;;12.40;56.50;;;;;;4143987;28;20042;-66
2022/03/13 08:54:43;;;;;;;15.52;9.35;;;12.30;55.90;;;;;;4143510;28;20046;-66
2022/03/13 08:56:45;;;;;;;13.60;8.80;;;12.30;55.40;;;;;;4144513;28;20449;-66
2022/03/13 08:58:47;;;;;;;15.60;9.70;;;12.30;56.90;;;;;;4147086;28;20464;-67
2022/03/13 09:00:51;;;;;;;14.73;9.70;;;12.20;55.70;;;;;;4142502;28;20053;-66
2022/03/13 09:02:53;;;;;;;14.63;9.25;;;12.10;55.80;;;;;;4146265;28;20389;-66
2022/03/13 09:04:53;;;;;;;16.15;9.75;;;12.10;57.00;;;;;;4143300;28;20125;-66
2022/03/13 09:06:54;;;;;;;18.05;10.43;;;12.00;56.70;;;;;;4141454;28;20038;-67
2022/03/13 09:08:55;;;;;;;14.35;9.50;;;12.00;58.20;;;;;;4142654;28;20046;-66
2022/03/13 09:10:56;;;;;;;15.30;9.80;;;11.90;58.70;;;;;;4142996;28;20049;-66
2022/03/13 09:12:56;;;;;;;14.18;8.80;;;12.00;57.30;;;;;;4129984;28;20526;-66
2022/03/13 09:15:00;;;;;;;15.65;9.68;;;12.00;59.50;;;;;;4143054;28;20050;-66
2022/03/13 09:17:02;;;;;;;13.45;9.00;;;11.80;57.10;;;;;;4139877;28;20046;-66
2022/03/13 09:19:02;;;;;;;21.08;9.32;;;11.90;58.40;;;;;;4145962;28;20342;-66
2022/03/13 09:21:03;;;;;;;15.18;9.55;;;12.00;58.80;;;;;;4145927;28;20047;-66
2022/03/13 09:23:03;;;;;;;15.27;9.82;;;12.10;58.20;;;;;;4143994;28;20473;-66
2022/03/13 09:25:04;;;;;;;14.68;9.57;;;12.20;57.90;;;;;;4143273;28;20049;-67
2022/03/13 09:27:05;;;;;;;16.45;10.05;;;12.20;56.00;;;;;;4145097;28;20071;-66
2022/03/13 09:29:07;;;;;;;18.83;10.23;;;12.30;56.40;;;;;;4144381;28;20381;-66
2022/03/13 09:31:09;;;;;;;15.93;9.32;;;12.40;56.40;;;;;;4144019;28;20038;-66
2022/03/13 09:33:11;;;;;;;18.45;10.30;;;12.50;57.10;;;;;;4151360;28;20059;-66
2022/03/13 09:35:11;;;;;;;15.48;9.75;;;12.60;56.30;;;;;;4148021;28;20549;-69
2022/03/13 09:37:12;;;;;;;16.58;10.40;;;12.60;56.80;;;;;;4143809;28;20050;-66
2022/03/13 09:39:13;;;;;;;14.85;9.82;;;12.70;56.00;;;;;;4146086;28;20560;-66
2022/03/13 09:41:13;;;;;;;19.20;10.55;;;12.80;55.80;;;;;;4146185;28;20041;-66
2022/03/13 09:43:14;;;;;;;17.38;9.80;;;12.90;55.60;;;;;;4146931;28;20041;-67
2022/03/13 09:45:15;;;;;;;15.75;9.63;;;13.00;56.60;;;;;;4146481;28;20048;-67
2022/03/13 09:47:16;;;;;;;20.67;10.13;;;13.20;56.40;;;;;;4144503;28;20065;-66
2022/03/13 09:49:20;;;;;;;19.50;10.63;;;13.20;55.60;;;;;;4144653;28;20061;-66
2022/03/13 09:51:21;;;;;;;17.00;10.27;;;13.20;55.60;;;;;;4145375;28;20053;-66
2022/03/13 09:53:22;;;;;;;19.48;10.80;;;13.30;56.10;;;;;;4149325;28;20050;-65
2022/03/13 09:55:23;;;;;;;14.82;9.55;;;13.40;57.20;;;;;;4148011;28;20034;-66
2022/03/13 09:57:23;;;;;;;16.70;10.40;;;13.50;56.80;;;;;;4146831;28;20124;-66
2022/03/13 09:59:24;;;;;;;14.40;9.55;;;13.60;56.00;;;;;;4143942;28;20673;-66
2022/03/13 10:01:24;;;;;;;16.95;10.35;;;13.70;56.80;;;;;;4147328;28;20034;-66
2022/03/13 10:03:25;;;;;;;14.43;9.25;;;13.90;57.10;;;;;;4141911;28;20030;-66
2022/03/13 10:05:39;;;;;;;15.25;9.57;;;14.00;57.20;;;;;;4143011;28;20041;-66
2022/03/13 10:07:59;;;;;;;14.90;9.57;;;14.10;57.30;;;;;;4144195;28;20050;-66
2022/03/13 10:10:11;;;;;;;16.30;10.20;;;14.20;56.20;;;;;;4159447;28;20041;-66
2022/03/13 10:12:18;;;;;;;14.70;9.75;;;14.20;55.80;;;;;;4148768;28;20053;-66
2022/03/13 10:14:18;;;;;;;15.52;9.80;;;14.30;55.20;;;;;;4147272;28;20080;-66
2022/03/13 10:16:34;;;;;;;17.42;10.32;;;14.20;55.00;;;;;;4146360;28;20050;-66
2022/03/13 10:18:35;;;;;;;16.50;9.82;;;14.30;57.40;;;;;;4146390;28;20493;-67
2022/03/13 10:20:36;;;;;;;16.50;10.30;;;14.40;56.40;;;;;;4146547;28;20045;-67
2022/03/13 10:22:36;;;;;;;16.10;10.45;;;14.40;56.00;;;;;;4143917;28;21324;-66
2022/03/13 10:24:43;;;;;;;18.38;10.90;;;14.50;55.70;;;;;;4144612;28;20157;-65
2022/03/13 10:26:44;;;;;;;18.45;11.52;;;14.50;55.30;;;;;;4143787;28;20042;-65
2022/03/13 10:28:45;;;;;;;18.42;11.38;;;14.60;55.90;;;;;;4144339;28;20507;-65
2022/03/13 10:31:07;;;;;;;14.55;9.52;;;14.60;56.50;;;;;;4144020;28;20035;-65